createdAt,value
2023-04-15T00:01:37.329Z,97198.84
2023-04-15T00:04:04.744Z,97198.13
2023-04-15T00:06:31.480Z,97198.91
2023-04-15T00:08:58.546Z,97191.38
2023-04-15T00:11:25.397Z,97198.31
2023-04-15T00:13:51.959Z,97194.19
2023-04-15T00:16:18.623Z,97196.84
2023-04-15T00:18:45.336Z,97189.28
2023-04-15T00:21:12.008Z,97192.00
2023-04-15T00:23:38.712Z,97187.00
2023-04-15T00:26:05.425Z,97199.88
2023-04-15T00:28:32.265Z,97199.03
2023-04-15T00:30:59.421Z,97210.97
2023-04-15T00:33:26.280Z,97210.25
2023-04-15T00:35:53.754Z,97205.88
2023-04-15T00:38:20.571Z,97205.94
2023-04-15T00:40:47.365Z,97205.94
2023-04-15T00:43:14.040Z,97213.56
2023-04-15T00:45:41.286Z,97209.34
2023-04-15T00:48:09.612Z,97223.00
2023-04-15T00:50:36.314Z,97216.03
2023-04-15T00:53:02.993Z,97226.28
2023-04-15T00:55:29.675Z,97227.09
2023-04-15T00:57:57.758Z,97225.31
2023-04-15T01:00:24.897Z,97224.47
2023-04-15T01:02:51.735Z,97225.22
2023-04-15T01:05:19.564Z,97232.78
2023-04-15T01:07:47.906Z,97228.44
2023-04-15T01:10:14.763Z,97231.75
2023-04-15T01:12:41.548Z,97226.47
2023-04-15T01:15:09.529Z,97231.50
2023-04-15T01:17:36.495Z,97219.44
2023-04-15T01:20:03.379Z,97212.41
2023-04-15T01:22:30.320Z,97214.06
2023-04-15T01:25:06.324Z,97219.78
2023-04-15T01:27:35.362Z,97224.03
2023-04-15T01:30:05.348Z,97224.72
2023-04-15T01:32:34.306Z,97227.09
2023-04-15T01:35:00.956Z,97221.75
2023-04-15T01:37:29.613Z,97222.47
2023-04-15T01:39:57.381Z,97226.59
2023-04-15T01:42:24.529Z,97229.84
2023-04-15T01:44:51.167Z,97217.78
2023-04-15T01:47:17.832Z,97221.03
2023-04-15T01:49:44.404Z,97205.53
2023-04-15T01:52:10.997Z,97203.72
2023-04-15T01:54:37.642Z,97199.38
2023-04-15T01:57:04.954Z,97199.34
2023-04-15T01:59:32.248Z,97187.41
2023-04-15T02:01:59.945Z,97191.69
2023-04-15T02:04:26.782Z,97195.16
2023-04-15T02:06:53.487Z,97199.38
2023-04-15T02:09:20.100Z,97193.38
2023-04-15T02:11:46.828Z,97186.59
2023-04-15T02:14:13.447Z,97183.94
2023-04-15T02:16:40.199Z,97180.47
2023-04-15T02:19:06.804Z,97180.44
2023-04-15T02:21:33.467Z,97186.31
2023-04-15T02:24:00.102Z,97190.59
2023-04-15T02:26:26.713Z,97202.53
2023-04-15T02:28:56.318Z,97201.53
2023-04-15T02:31:23.014Z,97210.09
2023-04-15T02:33:49.645Z,97210.97
2023-04-15T02:36:16.354Z,97197.25
2023-04-15T02:38:43.417Z,97201.44
2023-04-15T02:41:10.662Z,97209.81
2023-04-15T02:43:38.106Z,97206.44
2023-04-15T02:46:04.796Z,97206.44
2023-04-15T02:48:31.499Z,97209.69
2023-04-15T02:51:20.022Z,97212.94
2023-04-15T02:53:47.606Z,97209.59
2023-04-15T02:56:15.500Z,97205.06
2023-04-15T02:58:43.144Z,97210.13
2023-04-15T03:01:12.454Z,97215.03
2023-04-15T03:03:39.170Z,97209.78
2023-04-15T03:06:06.196Z,97203.66
2023-04-15T03:08:32.784Z,97200.84
2023-04-15T03:11:00.989Z,97190.31
2023-04-15T03:13:27.674Z,97200.22
2023-04-15T03:15:54.491Z,97204.44
2023-04-15T03:18:21.623Z,97205.13
2023-04-15T03:20:48.259Z,97201.84
2023-04-15T03:23:14.984Z,97206.75
2023-04-15T03:25:45.187Z,97201.53
2023-04-15T03:28:12.105Z,97195.34
2023-04-15T03:30:38.715Z,97196.41
2023-04-15T03:33:05.364Z,97192.09
2023-04-15T03:35:31.964Z,97200.31
2023-04-15T03:37:58.589Z,97203.53
2023-04-15T03:40:25.622Z,97205.19
2023-04-15T03:42:52.208Z,97217.28
2023-04-15T03:45:24.565Z,97225.56
2023-04-15T03:47:51.772Z,97226.28
2023-04-15T03:50:18.531Z,97223.66
2023-04-15T03:52:45.788Z,97229.88
2023-04-15T03:55:12.652Z,97240.09
2023-04-15T03:57:39.831Z,97234.75
2023-04-15T04:00:07.755Z,97225.19
2023-04-15T04:02:34.507Z,97224.25
2023-04-15T04:05:01.216Z,97228.31
2023-04-15T04:07:27.878Z,97224.91
2023-04-15T04:09:56.855Z,97224.84
2023-04-15T04:12:23.633Z,97223.28
2023-04-15T04:14:50.550Z,97223.22
2023-04-15T04:17:17.250Z,97231.66
2023-04-15T04:19:43.919Z,97228.09
2023-04-15T04:22:10.698Z,97229.63
2023-04-15T04:24:37.465Z,97238.25
2023-04-15T04:27:04.065Z,97241.34
2023-04-15T04:29:31.006Z,97248.81
2023-04-15T04:31:57.667Z,97250.69
2023-04-15T04:34:24.300Z,97249.88
2023-04-15T04:36:51.068Z,97255.81
2023-04-15T04:39:17.745Z,97252.25
2023-04-15T04:41:44.935Z,97254.94
2023-04-15T04:44:11.775Z,97254.03
2023-04-15T04:46:38.478Z,97251.59
2023-04-15T04:49:05.212Z,97256.06
2023-04-15T04:51:32.297Z,97259.38
2023-04-15T04:53:58.988Z,97264.34
2023-04-15T04:56:25.747Z,97270.22
2023-04-15T04:58:52.658Z,97267.50
2023-04-15T05:01:19.636Z,97267.34
2023-04-15T05:03:46.758Z,97260.38
2023-04-15T05:06:13.445Z,97261.16
2023-04-15T05:08:43.940Z,97259.31
2023-04-15T05:11:10.516Z,97259.16
2023-04-15T05:13:38.836Z,97257.25
2023-04-15T05:16:06.515Z,97263.13
2023-04-15T05:18:33.378Z,97264.34
2023-04-15T05:21:00.489Z,97263.69
2023-04-15T05:23:27.538Z,97267.00
2023-04-15T05:25:54.230Z,97267.59
2023-04-15T05:28:21.280Z,97270.03
2023-04-15T05:30:48.036Z,97269.97
2023-04-15T05:33:14.834Z,97261.59
2023-04-15T05:35:41.500Z,97273.66
2023-04-15T05:38:08.373Z,97269.19
2023-04-15T05:40:35.145Z,97271.81
2023-04-15T05:43:01.813Z,97275.03
2023-04-15T05:45:28.440Z,97284.63
2023-04-15T05:47:55.109Z,97286.63
2023-04-15T05:50:21.767Z,97279.25
2023-04-15T05:52:50.308Z,97281.81
2023-04-15T05:55:17.304Z,97285.41
2023-04-15T05:57:43.959Z,97287.22
2023-04-15T06:00:14.606Z,97283.59
2023-04-15T06:02:41.961Z,97285.38
2023-04-15T06:05:10.052Z,97285.31
2023-04-15T06:07:37.525Z,97286.13
2023-04-15T06:10:05.043Z,97288.69
2023-04-15T06:12:31.903Z,97288.59
2023-04-15T06:15:00.024Z,97286.84
2023-04-15T06:17:27.216Z,97288.34
2023-04-15T06:19:55.874Z,97284.03
2023-04-15T06:22:23.670Z,97289.19
2023-04-15T06:24:51.470Z,97290.38
2023-04-15T06:27:18.136Z,97286.97
2023-04-15T06:29:44.951Z,97287.16
2023-04-15T06:32:12.369Z,97285.66
2023-04-15T06:34:39.254Z,97289.13
2023-04-15T06:37:06.478Z,97286.03
2023-04-15T06:39:33.340Z,97287.44
2023-04-15T06:42:04.558Z,97287.56
2023-04-15T06:44:33.291Z,97286.13
2023-04-15T06:47:00.515Z,97291.63
2023-04-15T06:49:27.140Z,97280.44
2023-04-15T06:51:56.535Z,97286.25
2023-04-15T06:54:29.111Z,97285.91
2023-04-15T06:56:55.837Z,97290.44
2023-04-15T06:59:22.456Z,97284.69
2023-04-15T07:01:49.175Z,97292.97
2023-04-15T07:04:15.825Z,97289.47
2023-04-15T07:06:42.985Z,97295.28
2023-04-15T07:09:09.946Z,97298.59
2023-04-15T07:11:36.708Z,97298.03
2023-04-15T07:14:03.401Z,97294.16
2023-04-15T07:16:30.223Z,97300.47
2023-04-15T07:18:57.283Z,97304.56
2023-04-15T07:21:24.941Z,97302.28
2023-04-15T07:23:52.073Z,97297.84
2023-04-15T07:26:18.896Z,97313.50
2023-04-15T07:28:46.514Z,97320.06
2023-04-15T07:31:13.990Z,97309.59
2023-04-15T07:33:40.775Z,97317.81
2023-04-15T07:36:08.027Z,97317.75
2023-04-15T07:38:34.764Z,97313.44
2023-04-15T07:41:01.679Z,97327.53
2023-04-15T07:43:28.522Z,97327.97
2023-04-15T07:45:55.804Z,97321.91
2023-04-15T07:48:22.424Z,97318.66
2023-04-15T07:50:49.044Z,97317.91
2023-04-15T07:53:19.226Z,97321.88
2023-04-15T07:55:45.976Z,97320.72
2023-04-15T07:58:12.565Z,97321.53
2023-04-15T08:00:39.216Z,97326.22
2023-04-15T08:03:06.085Z,97337.38
2023-04-15T08:05:33.292Z,97336.41
2023-04-15T08:08:00.189Z,97337.44
2023-04-15T08:10:27.401Z,97338.41
2023-04-15T08:12:55.155Z,97345.94
2023-04-15T08:15:22.336Z,97353.53
2023-04-15T08:17:49.080Z,97350.88
2023-04-15T08:20:15.977Z,97357.59
2023-04-15T08:22:42.721Z,97356.75
2023-04-15T08:25:12.307Z,97357.38
2023-04-15T08:27:38.970Z,97359.00
2023-04-15T08:30:09.398Z,97365.34
2023-04-15T08:32:38.006Z,97364.78
2023-04-15T08:35:05.128Z,97360.81
2023-04-15T08:37:32.145Z,97354.63
2023-04-15T08:39:58.748Z,97354.19
2023-04-15T08:42:32.623Z,97357.13
2023-04-15T08:45:05.231Z,97357.56
2023-04-15T08:47:34.608Z,97359.72
2023-04-15T08:50:04.557Z,97356.34
2023-04-15T08:52:32.401Z,97366.16
2023-04-15T08:55:02.268Z,97363.13
2023-04-15T08:57:29.600Z,97372.22
2023-04-15T08:59:57.633Z,97368.50
2023-04-15T09:02:28.671Z,97371.22
2023-04-15T09:04:55.321Z,97374.09
2023-04-15T09:07:22.007Z,97365.03
2023-04-15T09:09:48.883Z,97371.00
2023-04-15T09:12:17.039Z,97374.19
2023-04-15T09:14:47.004Z,97372.88
2023-04-15T09:17:14.073Z,97371.91
2023-04-15T09:19:43.448Z,97371.06
2023-04-15T09:22:10.088Z,97374.41
2023-04-15T09:24:39.543Z,97384.84
2023-04-15T09:27:11.870Z,97379.00
2023-04-15T09:29:39.037Z,97381.97
2023-04-15T09:32:13.545Z,97389.66
2023-04-15T09:34:40.236Z,97388.91
2023-04-15T09:37:07.679Z,97382.97
2023-04-15T09:39:52.072Z,97384.38
2023-04-15T09:42:24.669Z,97392.75
2023-04-15T09:44:53.237Z,97395.81
2023-04-15T09:47:34.721Z,97389.53
2023-04-15T09:50:02.617Z,97398.81
2023-04-15T09:52:29.963Z,97400.91
2023-04-15T09:55:00.935Z,97396.31
2023-04-15T09:57:38.003Z,97403.09
2023-04-15T10:00:08.296Z,97410.38
2023-04-15T10:02:36.796Z,97406.03
2023-04-15T10:05:04.276Z,97409.41
2023-04-15T10:07:31.149Z,97408.38
2023-04-15T10:09:59.931Z,97410.06
2023-04-15T10:12:27.768Z,97404.53
2023-04-15T10:15:02.593Z,97400.19
2023-04-15T10:17:33.774Z,97416.25
2023-04-15T10:20:03.729Z,97407.63
2023-04-15T10:22:31.574Z,97406.47
2023-04-15T10:24:58.713Z,97414.38
2023-04-15T10:27:25.730Z,97408.03
2023-04-15T10:29:52.561Z,97414.72
2023-04-15T10:32:21.930Z,97415.56
2023-04-15T10:34:49.778Z,97408.44
2023-04-15T10:37:21.805Z,97413.81
2023-04-15T10:39:48.890Z,97405.03
2023-04-15T10:42:17.625Z,97403.84
2023-04-15T10:44:49.210Z,97405.34
2023-04-15T10:47:19.599Z,97415.13
2023-04-15T10:49:47.330Z,97401.91
2023-04-15T10:52:16.768Z,97403.50
2023-04-15T10:54:44.075Z,97402.22
2023-04-15T10:57:22.897Z,97407.25
2023-04-15T11:00:04.759Z,97405.38
2023-04-15T11:02:56.629Z,97405.00
2023-04-15T11:05:41.777Z,97401.50
2023-04-15T11:08:09.983Z,97404.25
2023-04-15T11:10:36.689Z,97412.38
2023-04-15T11:13:26.860Z,97399.97
2023-04-15T11:15:58.387Z,97398.06
2023-04-15T11:18:28.678Z,97398.81
2023-04-15T11:20:58.237Z,97392.59
2023-04-15T11:23:34.271Z,97401.53
2023-04-15T11:26:03.879Z,97392.56
2023-04-15T11:28:32.248Z,97390.72
2023-04-15T11:30:59.266Z,97400.16
2023-04-15T11:33:26.145Z,97402.09
2023-04-15T11:35:56.722Z,97392.00
2023-04-15T11:38:23.378Z,97397.97
2023-04-15T11:40:51.566Z,97396.22
2023-04-15T11:43:22.905Z,97395.94
2023-04-15T11:45:53.878Z,97402.72
2023-04-15T11:48:23.156Z,97396.63
2023-04-15T11:50:57.556Z,97404.13
2023-04-15T11:53:25.113Z,97402.28
2023-04-15T11:55:53.792Z,97403.75
2023-04-15T11:58:23.456Z,97401.25
2023-04-15T12:00:57.862Z,97411.41
2023-04-15T12:03:28.850Z,97402.59
2023-04-15T12:06:21.459Z,97411.22
2023-04-15T12:09:07.777Z,97410.63
2023-04-15T12:11:37.465Z,97407.81
2023-04-15T12:14:22.744Z,97412.47
2023-04-15T12:16:54.109Z,97413.81
2023-04-15T12:19:30.568Z,97412.78
2023-04-15T12:22:02.683Z,97404.56
2023-04-15T12:24:35.154Z,97405.72
2023-04-15T12:27:12.783Z,97403.59
2023-04-15T12:29:41.817Z,97409.06
2023-04-15T12:32:09.831Z,97410.38
2023-04-15T12:34:44.770Z,97422.06
2023-04-15T12:37:13.304Z,97434.88
2023-04-15T12:39:42.283Z,97437.22
2023-04-15T12:42:09.846Z,97435.63
2023-04-15T12:44:37.416Z,97432.44
2023-04-15T12:47:04.395Z,97436.81
2023-04-15T12:49:32.910Z,97437.47
2023-04-15T12:52:01.141Z,97433.56
2023-04-15T12:54:28.765Z,97434.31
2023-04-15T12:56:55.966Z,97430.03
2023-04-15T12:59:24.224Z,97432.34
2023-04-15T13:01:52.520Z,97434.13
2023-04-15T13:04:20.905Z,97438.66
2023-04-15T13:06:47.876Z,97438.19
2023-04-15T13:09:15.982Z,97442.81
2023-04-15T13:11:42.859Z,97438.22
2023-04-15T13:14:13.275Z,97447.34
2023-04-15T13:16:40.507Z,97451.78
2023-04-15T13:19:07.508Z,97443.25
2023-04-15T13:21:35.989Z,97451.97
2023-04-15T13:24:04.252Z,97459.16
2023-04-15T13:26:31.904Z,97459.09
2023-04-15T13:28:58.737Z,97466.38
2023-04-15T13:31:25.597Z,97465.63
2023-04-15T13:33:52.275Z,97461.56
2023-04-15T13:36:18.902Z,97463.03
2023-04-15T13:38:45.818Z,97470.19
2023-04-15T13:41:12.447Z,97474.72
2023-04-15T13:43:39.098Z,97478.50
2023-04-15T13:46:06.008Z,97480.03
2023-04-15T13:48:34.566Z,97487.06
2023-04-15T13:51:01.219Z,97490.88
2023-04-15T13:53:37.794Z,97507.16
2023-04-15T13:56:10.094Z,97510.34
2023-04-15T13:58:37.880Z,97508.69
2023-04-15T14:01:07.632Z,97507.09
2023-04-15T14:03:38.334Z,97508.00
2023-04-15T14:06:06.536Z,97504.34
2023-04-15T14:08:33.415Z,97515.00
2023-04-15T14:11:00.288Z,97505.38
2023-04-15T14:13:26.929Z,97516.91
2023-04-15T14:15:53.651Z,97517.63
2023-04-15T14:18:20.712Z,97513.06
2023-04-15T14:20:47.366Z,97510.91
2023-04-15T14:23:14.113Z,97517.44
2023-04-15T14:25:41.099Z,97518.91
2023-04-15T14:28:07.743Z,97525.50
2023-04-15T14:30:34.506Z,97523.84
2023-04-15T14:33:01.255Z,97526.78
2023-04-15T14:35:28.879Z,97530.34
2023-04-15T14:37:55.852Z,97536.22
2023-04-15T14:40:26.027Z,97542.63
2023-04-15T14:42:52.597Z,97537.53
2023-04-15T14:45:19.233Z,97537.81
2023-04-15T14:47:46.092Z,97539.47
2023-04-15T14:50:14.969Z,97538.63
2023-04-15T14:52:41.739Z,97543.09
2023-04-15T14:55:12.265Z,97555.09
2023-04-15T14:57:40.156Z,97550.25
2023-04-15T15:00:08.693Z,97555.88
2023-04-15T15:02:39.615Z,97552.25
2023-04-15T15:05:07.611Z,97557.75
2023-04-15T15:07:34.579Z,97562.69
2023-04-15T15:10:01.291Z,97564.34
2023-04-15T15:12:28.065Z,97567.19
2023-04-15T15:14:57.544Z,97571.50
2023-04-15T15:17:24.321Z,97567.41
2023-04-15T15:19:51.142Z,97569.78
2023-04-15T15:22:19.585Z,97563.81
2023-04-15T15:24:47.594Z,97575.72
2023-04-15T15:27:14.313Z,97571.31
2023-04-15T15:29:40.989Z,97574.63
2023-04-15T15:32:08.009Z,97578.75
2023-04-15T15:34:34.605Z,97577.09
2023-04-15T15:37:01.381Z,97582.41
2023-04-15T15:39:28.242Z,97578.06
2023-04-15T15:41:55.194Z,97594.28
2023-04-15T15:44:21.881Z,97597.66
2023-04-15T15:46:48.754Z,97591.53
2023-04-15T15:49:15.562Z,97605.41
2023-04-15T15:51:42.275Z,97592.31
2023-04-15T15:54:08.881Z,97600.31
2023-04-15T15:56:38.452Z,97598.94
2023-04-15T15:59:05.563Z,97611.03
2023-04-15T16:01:32.640Z,97603.13
2023-04-15T16:03:59.659Z,97603.00
2023-04-15T16:06:27.203Z,97603.59
2023-04-15T16:08:53.802Z,97609.16
2023-04-15T16:11:20.467Z,97610.28
2023-04-15T16:13:47.089Z,97614.25
2023-04-15T16:16:13.784Z,97609.06
2023-04-15T16:18:40.634Z,97611.66
2023-04-15T16:21:09.825Z,97614.94
2023-04-15T16:23:37.076Z,97619.44
2023-04-15T16:26:04.067Z,97613.97
2023-04-15T16:28:30.795Z,97619.28
2023-04-15T16:30:57.519Z,97620.03
2023-04-15T16:33:24.214Z,97620.44
2023-04-15T16:35:51.520Z,97632.84
2023-04-15T16:38:18.240Z,97637.94
2023-04-15T16:40:44.870Z,97639.00
2023-04-15T16:43:13.943Z,97637.56
2023-04-15T16:45:40.812Z,97638.44
2023-04-15T16:48:07.537Z,97642.13
2023-04-15T16:50:34.208Z,97646.59
2023-04-15T16:53:01.445Z,97650.25
2023-04-15T16:55:28.121Z,97656.72
2023-04-15T16:58:02.926Z,97658.94
2023-04-15T17:00:31.762Z,97658.09
2023-04-15T17:02:59.440Z,97673.31
2023-04-15T17:05:29.414Z,97678.53
2023-04-15T17:07:56.310Z,97679.25
2023-04-15T17:10:23.502Z,97676.72
2023-04-15T17:12:52.172Z,97674.84
2023-04-15T17:15:19.660Z,97679.38
2023-04-15T17:17:46.354Z,97681.88
2023-04-15T17:20:13.126Z,97685.66
2023-04-15T17:22:42.601Z,97684.44
2023-04-15T17:25:09.585Z,97686.41
2023-04-15T17:27:36.406Z,97687.19
2023-04-15T17:30:03.157Z,97690.94
2023-04-15T17:32:34.340Z,97701.22
2023-04-15T17:35:05.631Z,97693.38
2023-04-15T17:37:35.051Z,97702.25
2023-04-15T17:40:02.473Z,97705.66
2023-04-15T17:42:29.132Z,97710.09
2023-04-15T17:44:55.925Z,97709.44
2023-04-15T17:47:22.563Z,97720.66
2023-04-15T17:49:49.154Z,97725.97
2023-04-15T17:52:15.791Z,97723.53
2023-04-15T17:54:44.486Z,97731.34
2023-04-15T17:57:11.302Z,97729.63
2023-04-15T17:59:38.097Z,97739.28
2023-04-15T18:02:04.746Z,97746.31
2023-04-15T18:04:31.722Z,97751.56
2023-04-15T18:06:58.535Z,97752.44
2023-04-15T18:09:25.410Z,97750.91
2023-04-15T18:11:52.081Z,97759.47
2023-04-15T18:14:33.081Z,97764.84
2023-04-15T18:17:01.967Z,97768.34
2023-04-15T18:19:29.458Z,97772.84
2023-04-15T18:21:56.216Z,97777.22
2023-04-15T18:24:22.935Z,97779.94
2023-04-15T18:26:49.702Z,97781.81
2023-04-15T18:29:16.556Z,97791.28
2023-04-15T18:31:43.438Z,97786.91
2023-04-15T18:34:10.459Z,97795.72
2023-04-15T18:36:37.182Z,97789.84
2023-04-15T18:39:04.633Z,97798.63
2023-04-15T18:41:31.553Z,97803.84
2023-04-15T18:43:58.182Z,97796.13
2023-04-15T18:46:24.858Z,97803.06
2023-04-15T18:48:51.576Z,97810.63
2023-04-15T18:51:18.161Z,97816.78
2023-04-15T18:53:44.788Z,97821.94
2023-04-15T18:56:11.560Z,97826.25
2023-04-15T18:59:19.273Z,97824.75
2023-04-15T19:01:27.304Z,97826.56
2023-04-15T19:03:54.000Z,97833.47
2023-04-15T19:06:22.315Z,97834.38
2023-04-15T19:08:49.080Z,97835.19
2023-04-15T19:11:18.478Z,97831.81
2023-04-15T19:13:45.077Z,97836.28
2023-04-15T19:16:11.752Z,97844.03
2023-04-15T19:18:38.398Z,97851.09
2023-04-15T19:21:05.066Z,97851.09
2023-04-15T19:23:32.182Z,97851.09
2023-04-15T19:25:58.919Z,97843.44
2023-04-15T19:28:28.176Z,97852.06
2023-04-15T19:30:55.154Z,97861.53
2023-04-15T19:33:21.890Z,97863.09
2023-04-15T19:35:50.165Z,97863.84
2023-04-15T19:38:17.210Z,97868.28
2023-04-15T19:40:44.020Z,97865.81
2023-04-15T19:43:10.784Z,97870.25
2023-04-15T19:45:37.623Z,97870.41
2023-04-15T19:48:06.255Z,97877.25
2023-04-15T19:50:33.075Z,97879.59
2023-04-15T19:52:59.771Z,97877.13
2023-04-15T19:55:26.440Z,97879.78
2023-04-15T19:57:53.124Z,97885.69
2023-04-15T20:00:22.635Z,97882.34
2023-04-15T20:02:49.388Z,97888.63
2023-04-15T20:05:16.134Z,97885.91
2023-04-15T20:07:43.187Z,97891.06
2023-04-15T20:10:13.264Z,97887.75
2023-04-15T20:12:50.161Z,97898.94
2023-04-15T20:15:19.172Z,97905.09
2023-04-15T20:17:45.843Z,97906.03
2023-04-15T20:20:12.533Z,97906.75
2023-04-15T20:22:39.224Z,97906.03
2023-04-15T20:25:06.513Z,97907.06
2023-04-15T20:27:33.107Z,97904.19
2023-04-15T20:29:59.840Z,97901.53
2023-04-15T20:32:28.297Z,97899.94
2023-04-15T20:34:55.185Z,97893.91
2023-04-15T20:37:22.501Z,97903.50
2023-04-15T20:39:49.261Z,97898.25
2023-04-15T20:42:15.936Z,97906.88
2023-04-15T20:44:42.614Z,97912.84
2023-04-15T20:47:09.296Z,97915.47
2023-04-15T20:49:37.232Z,97914.25
2023-04-15T20:52:05.857Z,97911.78
2023-04-15T20:54:32.590Z,97915.66
2023-04-15T20:56:59.290Z,97917.44
2023-04-15T20:59:26.221Z,97925.25
2023-04-15T21:01:52.978Z,97922.66
2023-04-15T21:04:21.083Z,97930.28
2023-04-15T21:06:48.148Z,97939.75
2023-04-15T21:09:14.684Z,97944.06
2023-04-15T21:11:57.576Z,97943.34
2023-04-15T21:14:26.887Z,97949.22
2023-04-15T21:16:53.797Z,97953.47
2023-04-15T21:19:20.363Z,97955.97
2023-04-15T21:21:46.931Z,97950.75
2023-04-15T21:24:13.566Z,97957.56
2023-04-15T21:26:40.141Z,97954.94
2023-04-15T21:29:09.477Z,97958.50
2023-04-15T21:31:37.978Z,97962.00
2023-04-15T21:34:04.748Z,97973.16
2023-04-15T21:36:32.014Z,97977.47
2023-04-15T21:38:58.650Z,97970.72
2023-04-15T21:41:25.791Z,97973.19
2023-04-15T21:43:53.183Z,97969.88
2023-04-15T21:46:23.388Z,97968.09
2023-04-15T21:48:53.363Z,97973.31
2023-04-15T21:51:20.302Z,97974.22
2023-04-15T21:53:47.034Z,97976.56
2023-04-15T21:56:13.661Z,97979.91
2023-04-15T21:58:40.478Z,97984.22
2023-04-15T22:01:09.202Z,97978.84
2023-04-15T22:03:38.954Z,97983.16
2023-04-15T22:06:05.655Z,97983.91
2023-04-15T22:08:38.757Z,97992.53
2023-04-15T22:11:26.604Z,97983.34
2023-04-15T22:13:54.341Z,97991.06
2023-04-15T22:16:21.294Z,97992.75
2023-04-15T22:18:50.617Z,97992.59
2023-04-15T22:21:17.298Z,97997.69
2023-04-15T22:23:48.526Z,97995.09
2023-04-15T22:26:15.459Z,98008.88
2023-04-15T22:28:42.271Z,98008.03
2023-04-15T22:31:09.172Z,98007.94
2023-04-15T22:33:36.121Z,98012.19
2023-04-15T22:36:02.823Z,98017.31
2023-04-15T22:38:29.429Z,98017.31
2023-04-15T22:40:56.144Z,98019.19
2023-04-15T22:43:23.099Z,98017.31
2023-04-15T22:45:50.787Z,98022.69
2023-04-15T22:48:18.366Z,98025.31
2023-04-15T22:50:45.169Z,98030.63
2023-04-15T22:53:11.824Z,98031.38
2023-04-15T22:55:38.511Z,98027.97
2023-04-15T22:58:05.079Z,98027.91
2023-04-15T23:00:31.657Z,98036.53
2023-04-15T23:02:58.422Z,98042.59
2023-04-15T23:05:25.154Z,98035.00
2023-04-15T23:07:51.820Z,98049.66
2023-04-15T23:10:18.415Z,98046.28
2023-04-15T23:12:45.043Z,98050.59
2023-04-15T23:15:14.849Z,98048.81
2023-04-15T23:17:42.874Z,98050.69
2023-04-15T23:20:10.033Z,98057.69
2023-04-15T23:22:37.836Z,98064.66
2023-04-15T23:25:05.855Z,98061.34
2023-04-15T23:27:32.493Z,98056.22
2023-04-15T23:29:59.118Z,98058.00
2023-04-15T23:32:26.588Z,98058.88
2023-04-15T23:34:53.929Z,98050.38
2023-04-15T23:37:20.715Z,98051.25
2023-04-15T23:39:49.463Z,98054.63
2023-04-15T23:42:16.078Z,98052.91
2023-04-15T23:44:42.664Z,98052.91
2023-04-15T23:47:09.378Z,98052.06
2023-04-15T23:49:37.068Z,98047.84
2023-04-15T23:52:04.031Z,98053.88
2023-04-15T23:54:30.688Z,98053.88
2023-04-15T23:56:57.329Z,98051.25
2023-04-15T23:59:24.092Z,98058.13
